Time;durP1;ratioP1;P1;durP2;ratioP2;P2;SDS_P1;SDS_P2;PMS_P1;PMS_P2;Temp;Humidity;BMP_temperature;BMP_pressure;BME280_temperature;BME280_humidity;BME280_pressure;Samples;Min_cycle;Max_cycle;Signal;HPM_P1;HPM_P2
2023/06/25 00:02:26;;;;;;;20.13;12.97;;;17.20;99.90;;;;;;5096469;28;20213;-83
2023/06/25 00:04:53;;;;;;;20.80;13.17;;;17.10;99.90;;;;;;5077743;28;20656;-82
2023/06/25 00:07:20;;;;;;;19.00;13.07;;;17.10;99.90;;;;;;5078563;28;20201;-84
2023/06/25 00:09:55;;;;;;;20.87;13.40;;;17.10;99.90;;;;;;5061217;28;20200;-82
2023/06/25 00:12:22;;;;;;;22.73;13.33;;;17.10;99.90;;;;;;5061456;28;20292;-82
2023/06/25 00:14:49;;;;;;;23.50;13.80;;;17.10;99.90;;;;;;5061053;28;20263;-82
2023/06/25 00:17:17;;;;;;;23.20;13.57;;;17.10;99.90;;;;;;5061466;28;20267;-82
2023/06/25 00:19:44;;;;;;;20.53;13.70;;;17.10;99.90;;;;;;5061304;28;20201;-82
2023/06/25 00:22:12;;;;;;;22.57;14.17;;;17.00;99.90;;;;;;5060735;28;20247;-82
2023/06/25 00:24:40;;;;;;;22.50;14.07;;;17.00;99.90;;;;;;5077373;28;20266;-82
2023/06/25 00:27:07;;;;;;;21.03;14.10;;;16.90;99.90;;;;;;5061236;28;20322;-82
2023/06/25 00:29:34;;;;;;;23.83;13.63;;;16.90;99.90;;;;;;5077469;28;20270;-81
2023/06/25 00:32:02;;;;;;;25.43;14.30;;;16.90;99.90;;;;;;5060991;28;20288;-82
2023/06/25 00:34:29;;;;;;;23.50;14.17;;;16.80;99.90;;;;;;5077542;28;20253;-82
2023/06/25 00:36:57;;;;;;;22.23;14.13;;;16.80;99.90;;;;;;5077157;28;20267;-83
2023/06/25 00:39:24;;;;;;;21.03;13.93;;;16.90;99.90;;;;;;5077354;28;20231;-83
2023/06/25 00:41:51;;;;;;;20.60;13.63;;;16.80;99.90;;;;;;5077450;28;20243;-83
2023/06/25 00:44:18;;;;;;;46.03;14.30;;;16.80;99.90;;;;;;5077461;28;20642;-83
2023/06/25 00:46:45;;;;;;;23.03;14.27;;;16.70;99.90;;;;;;5077104;28;20237;-82
2023/06/25 00:49:13;;;;;;;22.53;13.80;;;16.70;99.90;;;;;;5077286;28;20232;-82
2023/06/25 00:51:40;;;;;;;23.47;13.57;;;16.70;99.90;;;;;;5076954;28;20213;-82
2023/06/25 00:54:07;;;;;;;23.40;14.20;;;16.70;99.90;;;;;;5077400;28;20221;-83
2023/06/25 00:56:37;;;;;;;20.60;13.53;;;16.60;99.90;;;;;;5060514;28;20233;-82
2023/06/25 00:59:04;;;;;;;22.60;13.80;;;16.60;99.90;;;;;;5095830;28;20531;-82
2023/06/25 01:01:39;;;;;;;20.60;13.30;;;16.60;99.90;;;;;;5077210;28;20221;-82
2023/06/25 01:04:19;;;;;;;24.23;13.40;;;16.60;99.90;;;;;;5060331;28;20195;-82
2023/06/25 01:06:51;;;;;;;20.87;12.83;;;16.60;99.90;;;;;;5094858;28;20656;-82
2023/06/25 01:09:20;;;;;;;21.17;13.50;;;16.60;99.90;;;;;;5077119;28;20187;-83
2023/06/25 01:12:01;;;;;;;18.10;12.30;;;16.60;99.90;;;;;;5076792;28;20346;-84
2023/06/25 01:14:28;;;;;;;18.50;11.93;;;16.60;99.90;;;;;;5094802;28;20205;-81
2023/06/25 01:16:56;;;;;;;16.70;11.50;;;16.60;99.90;;;;;;5076404;28;20213;-81
2023/06/25 01:19:29;;;;;;;21.53;12.23;;;16.60;99.90;;;;;;5094710;28;20283;-82
2023/06/25 01:22:02;;;;;;;20.03;11.50;;;16.60;99.90;;;;;;5076574;28;20221;-83
2023/06/25 01:24:34;;;;;;;19.87;11.97;;;16.50;99.90;;;;;;5094860;28;20166;-83
2023/06/25 01:27:03;;;;;;;17.97;10.97;;;16.50;99.90;;;;;;5076620;28;20189;-82
2023/06/25 01:29:34;;;;;;;15.67;11.10;;;16.50;99.90;;;;;;5060085;28;20197;-82
2023/06/25 01:32:01;;;;;;;15.73;10.40;;;16.50;99.90;;;;;;5060001;28;20201;-82
2023/06/25 01:34:28;;;;;;;14.67;9.63;;;16.50;99.90;;;;;;5076405;28;20306;-82
2023/06/25 01:36:55;;;;;;;14.90;9.63;;;16.50;99.90;;;;;;5094862;28;20218;-83
2023/06/25 01:39:22;;;;;;;15.17;8.90;;;16.50;99.90;;;;;;5060006;28;20204;-83
2023/06/25 01:41:50;;;;;;;13.30;8.67;;;16.50;99.90;;;;;;5094755;28;20299;-82
2023/06/25 01:44:28;;;;;;;14.37;8.57;;;16.60;99.90;;;;;;5076535;28;20202;-83
2023/06/25 01:46:56;;;;;;;12.83;8.50;;;16.50;99.90;;;;;;5076406;28;20221;-87
2023/06/25 01:49:24;;;;;;;9.97;7.57;;;16.50;99.90;;;;;;5059811;28;20247;-83
2023/06/25 01:51:54;;;;;;;17.27;8.90;;;16.50;99.90;;;;;;5094499;28;20205;-81
2023/06/25 01:54:21;;;;;;;11.43;8.03;;;16.50;99.90;;;;;;5094357;28;20616;-81
2023/06/25 01:56:48;;;;;;;13.43;8.30;;;16.50;99.90;;;;;;5076342;28;20259;-82
2023/06/25 01:59:15;;;;;;;14.30;7.73;;;16.50;99.90;;;;;;5076025;28;20235;-81
2023/06/25 02:01:42;;;;;;;10.87;7.27;;;16.40;99.90;;;;;;5093877;28;20272;-83
2023/06/25 02:04:09;;;;;;;10.07;7.57;;;16.40;99.90;;;;;;5093845;28;20200;-81
2023/06/25 02:06:36;;;;;;;11.87;7.70;;;16.40;99.90;;;;;;5093747;28;20212;-81
2023/06/25 02:09:03;;;;;;;14.30;8.50;;;16.40;99.90;;;;;;5093475;28;20356;-82
2023/06/25 02:11:30;;;;;;;10.77;7.77;;;16.40;99.90;;;;;;5076013;28;20837;-80
2023/06/25 02:13:57;;;;;;;12.53;7.70;;;16.40;99.90;;;;;;5075360;28;20545;-82
2023/06/25 02:16:23;;;;;;;10.63;7.50;;;16.40;99.90;;;;;;5075211;28;20210;-81
2023/06/25 02:18:53;;;;;;;11.07;7.37;;;16.30;99.90;;;;;;5093502;28;20235;-81
2023/06/25 02:21:20;;;;;;;11.47;7.43;;;16.40;99.90;;;;;;5059075;28;20673;-82
2023/06/25 02:23:47;;;;;;;10.83;7.20;;;16.40;99.90;;;;;;5075552;28;20185;-82
2023/06/25 02:26:14;;;;;;;11.37;7.33;;;16.30;99.90;;;;;;5074976;28;20316;-82
2023/06/25 02:28:41;;;;;;;10.60;7.10;;;16.40;99.90;;;;;;5058488;28;20251;-82
2023/06/25 02:31:08;;;;;;;11.50;6.90;;;16.40;99.90;;;;;;5075059;28;20267;-81
2023/06/25 02:33:35;;;;;;;10.33;6.90;;;16.40;99.90;;;;;;5058447;28;20284;-82
2023/06/25 02:36:02;;;;;;;11.20;6.77;;;16.40;99.90;;;;;;5058479;28;20294;-82
2023/06/25 02:38:29;;;;;;;11.10;7.00;;;16.40;99.90;;;;;;5058561;28;20189;-83
2023/06/25 02:40:56;;;;;;;10.93;7.10;;;16.40;99.90;;;;;;5075137;28;20829;-81
2023/06/25 02:43:23;;;;;;;15.57;8.13;;;16.40;99.90;;;;;;5093561;28;20231;-81
2023/06/25 02:45:50;;;;;;;12.63;7.33;;;16.40;99.90;;;;;;5074866;28;20692;-82
2023/06/25 02:48:17;;;;;;;11.27;7.13;;;16.50;99.90;;;;;;5077242;28;20196;-83
2023/06/25 02:50:44;;;;;;;12.27;7.23;;;16.50;99.90;;;;;;5077085;28;20308;-83
2023/06/25 02:53:11;;;;;;;11.10;7.20;;;16.50;99.90;;;;;;5077060;28;20220;-81
2023/06/25 02:55:38;;;;;;;11.87;7.20;;;16.50;99.90;;;;;;5059825;28;20290;-81
2023/06/25 02:58:05;;;;;;;12.30;7.93;;;16.50;99.90;;;;;;5079227;28;20189;-80
2023/06/25 03:00:32;;;;;;;12.17;7.13;;;16.40;99.90;;;;;;5074829;28;20255;-80
2023/06/25 03:02:59;;;;;;;13.93;7.57;;;16.50;99.90;;;;;;5074605;28;20246;-80
2023/06/25 03:05:26;;;;;;;12.17;7.53;;;16.50;99.90;;;;;;5058033;28;20217;-82
2023/06/25 03:07:56;;;;;;;11.13;6.90;;;16.50;99.90;;;;;;5074868;28;20185;-82
2023/06/25 03:10:28;;;;;;;16.23;7.87;;;16.50;99.90;;;;;;5058136;28;20229;-82
2023/06/25 03:12:56;;;;;;;11.70;7.87;;;16.50;99.90;;;;;;5074969;28;20197;-82
2023/06/25 03:15:23;;;;;;;12.53;7.37;;;16.50;99.90;;;;;;5092586;28;20247;-82
2023/06/25 03:17:50;;;;;;;10.07;7.00;;;16.50;99.90;;;;;;5074397;28;20223;-82
2023/06/25 03:20:17;;;;;;;11.70;7.53;;;16.60;99.90;;;;;;5091968;28;20201;-82
2023/06/25 03:22:44;;;;;;;13.63;7.90;;;16.60;99.90;;;;;;5057735;28;20201;-81
2023/06/25 03:25:11;;;;;;;11.47;7.37;;;16.60;99.90;;;;;;5074632;28;20779;-82
2023/06/25 03:27:38;;;;;;;12.80;7.27;;;16.60;99.90;;;;;;5074251;28;20232;-82
2023/06/25 03:30:06;;;;;;;12.80;7.73;;;16.60;99.90;;;;;;5074306;28;20214;-82
2023/06/25 03:32:33;;;;;;;12.73;7.47;;;16.60;99.90;;;;;;5057808;28;20200;-82
2023/06/25 03:35:00;;;;;;;14.20;8.00;;;16.60;99.90;;;;;;5092272;28;20238;-83
2023/06/25 03:37:27;;;;;;;11.97;7.87;;;16.60;99.90;;;;;;5074425;28;20199;-83
2023/06/25 03:39:54;;;;;;;22.60;8.60;;;16.60;99.90;;;;;;5057556;28;20280;-82
2023/06/25 03:42:21;;;;;;;11.30;7.70;;;16.70;99.90;;;;;;5092387;28;20193;-82
2023/06/25 03:44:54;;;;;;;14.90;7.73;;;16.70;99.90;;;;;;5092337;28;20724;-83
2023/06/25 03:47:21;;;;;;;12.20;7.70;;;16.70;99.90;;;;;;5057535;28;20712;-82
2023/06/25 03:49:48;;;;;;;10.50;7.00;;;16.70;99.90;;;;;;5057583;28;20185;-82
2023/06/25 03:52:15;;;;;;;10.80;7.00;;;16.70;99.90;;;;;;5057975;28;20193;-81
2023/06/25 03:54:42;;;;;;;12.30;7.57;;;16.70;99.90;;;;;;5074172;28;20217;-82
2023/06/25 03:57:09;;;;;;;12.97;7.77;;;16.80;99.90;;;;;;5074290;28;20233;-83
2023/06/25 03:59:36;;;;;;;11.37;7.43;;;16.80;99.90;;;;;;5057582;28;20262;-82
2023/06/25 04:02:05;;;;;;;13.83;8.37;;;16.80;99.90;;;;;;5074067;28;20645;-81
2023/06/25 04:04:32;;;;;;;13.53;8.00;;;16.80;99.90;;;;;;5074075;28;20204;-81
2023/06/25 04:06:59;;;;;;;12.73;8.27;;;16.90;99.90;;;;;;5057503;28;20223;-81
2023/06/25 04:09:26;;;;;;;11.07;7.67;;;16.90;99.90;;;;;;5092157;28;20185;-82
2023/06/25 04:11:53;;;;;;;12.80;8.00;;;17.00;99.90;;;;;;5073698;28;20218;-82
2023/06/25 04:14:20;;;;;;;14.20;7.83;;;17.00;99.90;;;;;;5057221;28;20198;-82
2023/06/25 04:16:47;;;;;;;14.33;8.17;;;17.00;99.90;;;;;;5057221;28;20245;-81
2023/06/25 04:19:14;;;;;;;14.10;8.30;;;17.10;99.90;;;;;;5092075;28;20182;-82
2023/06/25 04:21:41;;;;;;;13.53;8.20;;;17.10;99.90;;;;;;5057195;28;20221;-81
2023/06/25 04:24:08;;;;;;;15.07;8.77;;;17.20;99.90;;;;;;5073873;28;20565;-82
2023/06/25 04:26:35;;;;;;;12.67;8.43;;;17.20;99.90;;;;;;5074682;28;20542;-82
2023/06/25 04:29:02;;;;;;;13.83;8.20;;;17.30;99.90;;;;;;5074100;28;20243;-81
2023/06/25 04:31:30;;;;;;;16.83;8.67;;;17.40;99.90;;;;;;5057141;28;20221;-81
2023/06/25 04:33:57;;;;;;;12.80;7.60;;;17.40;99.90;;;;;;5060425;28;20625;-81
2023/06/25 04:36:24;;;;;;;13.50;8.67;;;17.50;99.90;;;;;;5077058;28;20352;-82
2023/06/25 04:38:51;;;;;;;14.87;8.70;;;17.60;99.90;;;;;;5060484;28;20250;-82
2023/06/25 04:41:18;;;;;;;13.60;8.03;;;17.60;99.90;;;;;;5076882;28;20241;-83
2023/06/25 04:43:45;;;;;;;14.00;8.30;;;17.60;99.90;;;;;;5060649;28;20576;-83
2023/06/25 04:46:12;;;;;;;17.50;8.83;;;17.70;99.90;;;;;;5060556;28;20229;-83
2023/06/25 04:48:42;;;;;;;14.53;8.00;;;17.70;99.90;;;;;;5077431;28;20556;-83
2023/06/25 04:51:09;;;;;;;11.73;8.40;;;17.80;99.90;;;;;;5060447;28;20247;-82
2023/06/25 04:53:36;;;;;;;12.73;8.03;;;17.80;99.90;;;;;;5095072;28;20193;-83
2023/06/25 04:56:03;;;;;;;12.23;8.13;;;17.70;99.90;;;;;;5076565;28;20677;-82
2023/06/25 04:58:33;;;;;;;13.13;8.40;;;17.80;99.90;;;;;;5060402;28;20189;-82
2023/06/25 05:01:00;;;;;;;14.77;8.60;;;17.90;99.90;;;;;;5094962;28;20263;-82
2023/06/25 05:03:27;;;;;;;15.07;8.40;;;17.90;99.90;;;;;;5077098;28;20194;-83
2023/06/25 05:05:54;;;;;;;13.93;8.33;;;17.90;99.90;;;;;;5076550;28;20224;-83
2023/06/25 05:08:21;;;;;;;13.23;8.00;;;18.00;99.90;;;;;;5060140;28;20197;-83
2023/06/25 05:10:47;;;;;;;12.47;7.97;;;17.90;99.90;;;;;;5060310;28;20637;-82
2023/06/25 05:13:14;;;;;;;14.57;8.47;;;18.00;99.90;;;;;;5076995;28;20267;-82
2023/06/25 05:15:41;;;;;;;18.33;9.27;;;17.90;99.90;;;;;;5094599;28;20217;-82
2023/06/25 05:18:09;;;;;;;12.43;8.23;;;17.90;99.90;;;;;;5076637;28;20190;-82
2023/06/25 05:20:36;;;;;;;11.40;7.87;;;17.90;99.90;;;;;;5094879;28;20227;-83
2023/06/25 05:23:04;;;;;;;16.37;8.10;;;17.90;99.90;;;;;;5059921;28;20300;-82
2023/06/25 05:25:34;;;;;;;14.13;8.13;;;17.80;99.90;;;;;;5076505;28;20270;-83
2023/06/25 05:28:03;;;;;;;15.47;9.10;;;17.90;99.90;;;;;;5076327;28;20198;-83
2023/06/25 05:30:31;;;;;;;13.37;7.93;;;17.90;99.90;;;;;;5059662;28;20220;-83
2023/06/25 05:33:01;;;;;;;20.27;9.47;;;17.90;99.90;;;;;;5076861;28;20652;-83
2023/06/25 05:35:31;;;;;;;12.80;8.87;;;17.90;99.90;;;;;;5076104;28;20225;-82
2023/06/25 05:37:58;;;;;;;13.60;8.80;;;17.90;99.90;;;;;;5076439;28;20698;-81
2023/06/25 05:40:27;;;;;;;13.90;8.57;;;17.90;99.90;;;;;;5094223;28;20210;-81
2023/06/25 05:42:54;;;;;;;15.90;8.67;;;17.90;99.90;;;;;;5075980;28;20660;-81
2023/06/25 05:45:22;;;;;;;14.60;8.83;;;18.00;99.90;;;;;;5058215;28;20278;-82
2023/06/25 05:47:49;;;;;;;14.83;8.73;;;18.00;99.90;;;;;;5076409;28;20537;-82
2023/06/25 05:50:16;;;;;;;14.27;9.17;;;18.10;99.90;;;;;;5076518;28;20680;-82
2023/06/25 05:52:43;;;;;;;14.43;8.60;;;18.10;99.90;;;;;;5076362;28;20201;-81
2023/06/25 05:55:11;;;;;;;14.83;9.50;;;18.20;99.90;;;;;;5076318;28;20213;-81
2023/06/25 05:57:39;;;;;;;13.93;9.33;;;18.40;99.90;;;;;;5075867;28;20290;-82
2023/06/25 06:00:08;;;;;;;15.83;9.23;;;18.40;99.90;;;;;;5075949;28;20209;-82
2023/06/25 06:02:36;;;;;;;15.83;9.47;;;18.40;99.90;;;;;;5076601;28;20190;-83
2023/06/25 06:05:04;;;;;;;16.20;10.03;;;18.40;99.90;;;;;;5094529;28;20201;-82
2023/06/25 06:07:31;;;;;;;15.80;10.00;;;18.60;99.90;;;;;;5059639;28;20288;-82
2023/06/25 06:09:58;;;;;;;16.60;9.73;;;18.70;99.90;;;;;;5076071;28;20282;-82
2023/06/25 06:12:25;;;;;;;13.40;8.90;;;18.80;99.90;;;;;;5076474;28;20197;-82
2023/06/25 06:14:53;;;;;;;17.57;9.47;;;18.90;99.90;;;;;;5060317;28;20239;-82
2023/06/25 06:17:20;;;;;;;15.47;9.10;;;19.00;99.90;;;;;;5076022;28;20533;-82
2023/06/25 06:19:47;;;;;;;12.73;8.30;;;19.10;99.90;;;;;;5058744;28;20202;-82
2023/06/25 06:22:15;;;;;;;13.10;8.17;;;19.20;99.90;;;;;;5093945;28;20197;-81
2023/06/25 06:24:42;;;;;;;15.87;8.87;;;19.30;99.90;;;;;;5075535;28;20194;-82
2023/06/25 06:27:09;;;;;;;11.77;8.03;;;19.50;99.90;;;;;;5075503;28;20190;-82
2023/06/25 06:29:35;;;;;;;13.00;8.13;;;19.60;99.90;;;;;;5093399;28;20189;-82
2023/06/25 06:32:03;;;;;;;14.33;8.60;;;19.70;99.90;;;;;;5058926;28;20246;-82
2023/06/25 06:34:30;;;;;;;13.20;8.47;;;19.80;99.90;;;;;;5058749;28;20189;-83
2023/06/25 06:36:57;;;;;;;12.77;8.00;;;19.90;99.90;;;;;;5093856;28;20310;-82
2023/06/25 06:39:24;;;;;;;12.93;7.83;;;19.90;99.90;;;;;;5075491;28;20197;-81
2023/06/25 06:41:50;;;;;;;12.77;7.83;;;20.00;99.90;;;;;;5059139;28;20245;-82
2023/06/25 06:44:18;;;;;;;14.87;8.13;;;20.10;99.90;;;;;;5075326;28;20181;-82
2023/06/25 06:46:46;;;;;;;13.07;7.90;;;20.10;99.90;;;;;;5075046;28;20247;-82
2023/06/25 06:49:13;;;;;;;13.17;8.23;;;20.10;99.90;;;;;;5074813;28;20205;-81
2023/06/25 06:51:41;;;;;;;10.77;7.80;;;20.10;99.90;;;;;;5058255;28;20221;-81
2023/06/25 06:54:08;;;;;;;12.43;7.63;;;20.20;99.90;;;;;;5058811;28;20193;-81
2023/06/25 06:56:35;;;;;;;12.57;7.70;;;20.20;99.90;;;;;;5092723;28;20786;-81
2023/06/25 06:59:02;;;;;;;12.33;7.17;;;20.30;99.90;;;;;;5058032;28;20656;-83
2023/06/25 07:01:29;;;;;;;14.10;7.70;;;20.40;99.90;;;;;;5057908;28;20212;-81
2023/06/25 07:03:59;;;;;;;12.23;7.60;;;20.60;99.90;;;;;;5092929;28;20189;-82
2023/06/25 07:06:25;;;;;;;14.60;7.90;;;20.70;99.90;;;;;;5092415;28;20232;-82
2023/06/25 07:08:52;;;;;;;10.80;6.80;;;20.80;99.90;;;;;;5074262;28;20231;-81
2023/06/25 07:11:19;;;;;;;10.37;7.10;;;20.90;99.90;;;;;;5074526;28;20258;-81
2023/06/25 07:13:47;;;;;;;9.27;6.77;;;21.00;99.90;;;;;;5074687;28;20197;-82
2023/06/25 07:16:14;;;;;;;11.40;6.80;;;21.10;99.90;;;;;;5092713;28;20680;-82
2023/06/25 07:18:43;;;;;;;10.40;7.13;;;21.30;99.90;;;;;;5057631;28;20250;-83
2023/06/25 07:21:10;;;;;;;17.83;7.90;;;21.30;99.90;;;;;;5057960;28;20259;-82
2023/06/25 07:23:37;;;;;;;15.03;7.50;;;21.30;99.90;;;;;;5057853;28;20198;-82
2023/06/25 07:26:04;;;;;;;10.23;7.10;;;21.50;99.90;;;;;;5093158;28;20602;-82
2023/06/25 07:28:31;;;;;;;15.20;7.50;;;21.60;99.90;;;;;;5074383;28;20562;-82
2023/06/25 07:30:58;;;;;;;10.27;7.40;;;21.70;99.90;;;;;;5058018;28;20244;-82
2023/06/25 07:33:25;;;;;;;11.70;8.23;;;21.80;99.90;;;;;;5074420;28;20254;-82
2023/06/25 07:35:52;;;;;;;12.33;7.73;;;21.70;99.90;;;;;;5057668;28;20282;-82
2023/06/25 07:38:19;;;;;;;10.57;7.63;;;21.70;99.90;;;;;;5074833;28;20589;-83
2023/06/25 07:40:46;;;;;;;10.43;7.20;;;21.60;99.90;;;;;;5074569;28;20771;-83
2023/06/25 07:43:13;;;;;;;11.60;6.90;;;21.60;99.90;;;;;;5074425;28;20202;-82
2023/06/25 07:45:40;;;;;;;9.53;6.30;;;21.70;99.90;;;;;;5074247;28;20210;-82
2023/06/25 07:48:08;;;;;;;11.13;6.97;;;21.90;99.90;;;;;;5074194;28;20350;-84
2023/06/25 07:50:35;;;;;;;8.27;6.20;;;22.00;99.90;;;;;;5057306;28;20236;-82
2023/06/25 07:53:02;;;;;;;10.93;6.83;;;22.10;99.90;;;;;;5073959;28;20664;-81
2023/06/25 07:55:29;;;;;;;8.57;6.43;;;22.00;99.90;;;;;;5073752;28;20217;-82
2023/06/25 07:57:56;;;;;;;13.20;7.07;;;22.10;99.90;;;;;;5091756;28;20190;-83
2023/06/25 08:00:23;;;;;;;10.07;6.40;;;22.30;99.90;;;;;;5073635;28;20221;-81
2023/06/25 08:02:50;;;;;;;12.77;7.97;;;22.50;99.90;;;;;;5056995;28;20577;-80
2023/06/25 08:05:17;;;;;;;10.23;7.23;;;22.30;99.90;;;;;;5057096;28;20240;-84
2023/06/25 08:07:44;;;;;;;10.10;6.87;;;22.40;99.90;;;;;;5059384;28;20233;-81
2023/06/25 08:10:11;;;;;;;8.50;6.37;;;22.60;99.90;;;;;;5060999;28;20304;-81
2023/06/25 08:12:38;;;;;;;11.83;7.00;;;22.50;99.90;;;;;;5077870;28;20255;-88
2023/06/25 08:15:05;;;;;;;12.30;6.93;;;22.60;99.90;;;;;;5077756;28;20588;-82
2023/06/25 08:17:32;;;;;;;9.53;6.80;;;22.60;99.90;;;;;;5061058;28;20252;-84
2023/06/25 08:19:59;;;;;;;10.20;6.67;;;22.60;99.90;;;;;;5060911;28;20228;-82
2023/06/25 08:22:26;;;;;;;9.67;6.73;;;22.70;99.90;;;;;;5095685;28;20544;-85
2023/06/25 08:24:55;;;;;;;12.13;6.93;;;22.60;99.90;;;;;;5077302;28;20645;-84
2023/06/25 08:27:22;;;;;;;9.93;6.40;;;22.80;99.90;;;;;;5061008;28;20292;-85
2023/06/25 08:29:49;;;;;;;10.93;6.45;;;23.80;99.90;;;;;;5077652;28;20194;-84
2023/06/25 08:32:16;;;;;;;8.65;6.07;;;24.60;99.90;;;;;;5095435;28;20729;-84
2023/06/25 08:34:43;;;;;;;10.95;6.70;;;25.40;99.90;;;;;;5060989;28;20314;-84
2023/06/25 08:37:10;;;;;;;10.20;6.65;;;26.10;99.90;;;;;;5077248;28;20218;-83
2023/06/25 08:39:37;;;;;;;13.70;7.00;;;26.50;99.90;;;;;;5077315;28;20606;-83
2023/06/25 08:42:04;;;;;;;8.73;6.22;;;26.90;99.90;;;;;;5060214;28;20227;-83
2023/06/25 08:44:31;;;;;;;7.38;5.55;;;27.30;99.90;;;;;;5076923;28;20189;-82
2023/06/25 08:46:59;;;;;;;7.50;5.85;;;27.80;99.90;;;;;;5076771;28;20310;-83
2023/06/25 08:49:29;;;;;;;7.70;5.78;;;27.90;99.90;;;;;;5095163;28;20215;-83
2023/06/25 08:51:59;;;;;;;9.77;5.88;;;27.90;99.90;;;;;;5060820;28;20265;-83
2023/06/25 08:54:26;;;;;;;8.13;5.60;;;27.80;99.90;;;;;;5095247;28;20192;-83
2023/06/25 08:56:53;;;;;;;9.70;6.22;;;28.00;99.90;;;;;;5076697;28;20243;-84
2023/06/25 08:59:20;;;;;;;7.95;5.53;;;27.80;99.90;;;;;;5060467;28;20301;-83
2023/06/25 09:01:47;;;;;;;8.35;5.88;;;28.10;99.90;;;;;;5060222;28;20275;-84
2023/06/25 09:04:14;;;;;;;10.00;5.90;;;28.20;99.90;;;;;;5060462;28;20189;-84
2023/06/25 09:06:41;;;;;;;7.75;5.47;;;28.00;99.90;;;;;;5094673;28;20241;-84
2023/06/25 09:09:28;;;;;;;6.80;5.30;;;28.10;99.90;;;;;;5076648;28;20637;-84
2023/06/25 09:11:55;;;;;;;9.10;5.70;;;28.20;99.90;;;;;;5094705;28;20236;-84
2023/06/25 09:14:22;;;;;;;7.50;5.80;;;28.50;99.90;;;;;;5076747;28;20225;-84
2023/06/25 09:16:50;;;;;;;10.30;5.82;;;28.60;99.90;;;;;;5076677;28;20233;-85
2023/06/25 09:19:21;;;;;;;7.93;5.40;;;28.70;99.90;;;;;;5059995;28;20193;-84
2023/06/25 09:21:48;;;;;;;6.78;5.50;;;29.10;99.90;;;;;;5076196;28;20213;-85
2023/06/25 09:24:18;;;;;;;7.30;5.15;;;29.40;99.70;;;;;;5094413;28;20255;-83
2023/06/25 09:26:48;;;;;;;10.48;5.53;;;29.60;98.60;;;;;;5094672;28;20209;-84
2023/06/25 09:29:16;;;;;;;8.60;5.53;;;29.80;98.60;;;;;;5095018;28;20232;-85
2023/06/25 09:31:44;;;;;;;8.00;5.03;;;29.90;99.20;;;;;;5059991;28;20262;-82
2023/06/25 09:34:14;;;;;;;6.25;5.30;;;29.80;98.70;;;;;;5076017;28;20266;-83
2023/06/25 09:36:42;;;;;;;10.90;5.65;;;30.00;98.90;;;;;;5094447;28;20226;-85
2023/06/25 09:39:10;;;;;;;8.25;5.53;;;30.00;96.60;;;;;;5076009;28;20287;-84
2023/06/25 09:41:40;;;;;;;8.55;5.18;;;30.00;95.50;;;;;;5059193;28;20221;-85
2023/06/25 09:44:08;;;;;;;8.13;4.95;;;29.70;93.60;;;;;;5094286;28;20621;-85
2023/06/25 09:46:37;;;;;;;6.65;4.45;;;29.80;95.00;;;;;;5060017;28;20306;-86
2023/06/25 09:49:07;;;;;;;6.75;4.60;;;29.70;92.60;;;;;;5094428;28;20178;-86
2023/06/25 09:52:04;;;;;;;6.25;4.90;;;29.80;92.50;;;;;;5075703;28;20321;-85
2023/06/25 09:54:32;;;;;;;9.60;4.85;;;30.20;91.50;;;;;;5092132;28;20289;-87
2023/06/25 09:57:01;;;;;;;8.55;5.30;;;30.50;90.50;;;;;;5058878;28;20535;-85
2023/06/25 09:59:31;;;;;;;7.07;5.18;;;29.80;90.10;;;;;;5094006;28;20189;-85
2023/06/25 10:01:59;;;;;;;7.68;4.97;;;29.60;90.90;;;;;;5075428;28;20221;-85
2023/06/25 10:04:26;;;;;;;7.30;4.72;;;29.30;91.20;;;;;;5075426;28;20203;-84
2023/06/25 10:06:53;;;;;;;6.45;4.93;;;29.10;91.10;;;;;;5076096;28;20221;-86
2023/06/25 10:09:20;;;;;;;6.78;4.80;;;28.90;91.70;;;;;;5059142;28;20194;-84
2023/06/25 10:11:54;;;;;;;8.02;5.10;;;29.30;90.50;;;;;;5076023;28;20609;-85
2023/06/25 10:14:24;;;;;;;7.70;4.85;;;29.50;90.40;;;;;;5093533;28;20207;-85
2023/06/25 10:16:55;;;;;;;7.20;4.88;;;30.20;91.80;;;;;;5075223;28;20670;-85
2023/06/25 10:19:24;;;;;;;5.68;4.90;;;30.60;89.30;;;;;;5075304;28;20190;-86
2023/06/25 10:22:04;;;;;;;5.85;4.70;;;30.80;85.80;;;;;;5075086;28;20225;-84
2023/06/25 10:24:41;;;;;;;6.85;5.20;;;31.00;84.80;;;;;;5075697;28;20200;-85
2023/06/25 10:27:20;;;;;;;8.10;5.32;;;31.10;84.80;;;;;;5075376;28;20201;-85
2023/06/25 10:29:47;;;;;;;6.25;4.97;;;31.40;86.30;;;;;;5074987;28;20216;-83
2023/06/25 10:32:20;;;;;;;8.35;5.60;;;31.80;83.80;;;;;;5075290;28;20649;-83
2023/06/25 10:34:52;;;;;;;7.40;5.43;;;31.10;81.20;;;;;;5093448;28;20647;-85
2023/06/25 10:37:19;;;;;;;9.40;5.70;;;30.80;82.20;;;;;;5092948;28;20685;-73
2023/06/25 10:39:47;;;;;;;6.30;5.18;;;30.90;88.70;;;;;;5074950;28;20242;-78
2023/06/25 10:42:14;;;;;;;6.90;5.20;;;30.70;91.80;;;;;;5074847;28;20288;-85
2023/06/25 10:44:41;;;;;;;10.05;5.47;;;30.40;90.10;;;;;;5074861;28;20215;-82
2023/06/25 10:47:09;;;;;;;7.25;5.03;;;30.20;88.90;;;;;;5058096;28;20226;-83
2023/06/25 10:49:39;;;;;;;5.55;4.88;;;30.00;88.40;;;;;;5093244;28;20307;-81
2023/06/25 10:52:07;;;;;;;6.30;4.88;;;30.50;92.30;;;;;;5093135;28;20527;-86
2023/06/25 10:54:34;;;;;;;7.25;5.22;;;30.90;90.40;;;;;;5074697;28;20197;-83
2023/06/25 10:57:08;;;;;;;8.98;5.10;;;30.60;85.40;;;;;;5075041;28;20213;-82
2023/06/25 10:59:37;;;;;;;6.60;4.82;;;30.30;88.80;;;;;;5092792;28;20232;-82
2023/06/25 11:02:14;;;;;;;7.90;5.20;;;31.00;90.20;;;;;;5074431;28;20190;-83
2023/06/25 11:04:42;;;;;;;8.23;5.13;;;31.50;87.70;;;;;;5074811;28;20193;-81
2023/06/25 11:07:12;;;;;;;7.70;5.03;;;31.40;87.30;;;;;;5074581;28;20652;-84
2023/06/25 11:09:39;;;;;;;7.57;5.28;;;30.80;87.90;;;;;;5058246;28;20197;-87
2023/06/25 11:12:07;;;;;;;6.32;5.00;;;30.20;90.40;;;;;;5075064;28;20193;-87
2023/06/25 11:14:34;;;;;;;7.15;5.30;;;29.80;89.10;;;;;;5074500;28;20229;-86
2023/06/25 11:17:01;;;;;;;7.00;4.82;;;30.00;90.10;;;;;;5092620;28;20231;-85
2023/06/25 11:19:32;;;;;;;6.38;5.10;;;30.50;90.80;;;;;;5058133;28;20204;-84
2023/06/25 11:22:03;;;;;;;6.40;4.55;;;31.00;85.00;;;;;;5058545;28;20225;-85
2023/06/25 11:24:34;;;;;;;9.63;5.38;;;31.60;85.00;;;;;;5058306;28;20201;-85
2023/06/25 11:27:01;;;;;;;8.25;4.82;;;32.00;81.70;;;;;;5074970;28;20189;-87
2023/06/25 11:29:36;;;;;;;7.15;5.10;;;31.60;81.60;;;;;;5075076;28;20534;-86
2023/06/25 11:32:07;;;;;;;6.40;4.75;;;31.20;80.90;;;;;;5092682;28;20246;-86
2023/06/25 11:34:35;;;;;;;7.10;4.90;;;30.50;83.50;;;;;;5058314;28;20189;-85
2023/06/25 11:37:13;;;;;;;5.80;4.90;;;29.80;84.50;;;;;;5092704;28;20205;-86
2023/06/25 11:39:48;;;;;;;7.75;4.82;;;29.50;83.00;;;;;;5074873;28;20306;-87
2023/06/25 11:42:19;;;;;;;7.97;4.90;;;28.20;82.30;;;;;;5094105;28;20173;-85
2023/06/25 11:45:01;;;;;;;9.13;5.35;;;27.80;84.30;;;;;;5079014;28;20201;-86
2023/06/25 11:47:29;;;;;;;7.85;5.13;;;27.70;87.20;;;;;;5096599;28;20270;-88
2023/06/25 11:49:57;;;;;;;16.27;6.80;;;27.60;88.40;;;;;;5061623;28;20221;-85
2023/06/25 11:52:27;;;;;;;8.50;5.10;;;27.70;89.00;;;;;;5078717;28;20211;-85
2023/06/25 11:54:54;;;;;;;7.85;5.13;;;27.50;88.40;;;;;;5078787;28;20240;-85
2023/06/25 11:57:23;;;;;;;7.07;5.03;;;27.60;91.00;;;;;;5097042;28;20401;-86
2023/06/25 11:59:50;;;;;;;7.07;5.03;;;27.60;90.00;;;;;;5078416;28;20243;-86
2023/06/25 12:02:17;;;;;;;8.73;4.80;;;27.60;91.00;;;;;;5082251;28;20204;-86
2023/06/25 12:04:44;;;;;;;6.60;4.80;;;28.00;90.20;;;;;;5102676;28;20277;-86
2023/06/25 12:07:11;;;;;;;6.18;4.82;;;28.60;87.50;;;;;;5084262;28;20203;-86
2023/06/25 12:09:38;;;;;;;7.88;5.07;;;29.30;87.50;;;;;;5083574;28;20233;-86
2023/06/25 12:12:06;;;;;;;8.52;4.95;;;30.10;88.10;;;;;;5083712;28;20266;-84
2023/06/25 12:14:32;;;;;;;8.15;5.38;;;30.60;87.60;;;;;;5084418;28;20217;-84
2023/06/25 12:17:00;;;;;;;6.93;5.10;;;30.70;82.60;;;;;;5099474;28;20224;-84
2023/06/25 12:19:29;;;;;;;7.43;5.25;;;30.50;78.70;;;;;;5098483;28;20189;-86
2023/06/25 12:21:58;;;;;;;7.50;5.28;;;30.10;80.10;;;;;;5061852;28;20217;-85
2023/06/25 12:24:25;;;;;;;6.72;5.18;;;29.80;83.40;;;;;;5061286;28;20229;-86
2023/06/25 12:26:54;;;;;;;6.18;4.85;;;29.90;83.60;;;;;;5077722;28;20304;-84
2023/06/25 12:29:21;;;;;;;5.60;5.03;;;29.70;84.20;;;;;;5095930;28;20186;-85
2023/06/25 12:31:48;;;;;;;7.70;5.28;;;30.00;85.10;;;;;;5061302;28;20221;-84
2023/06/25 12:34:15;;;;;;;7.35;5.25;;;30.30;79.70;;;;;;5078496;28;20197;-86
2023/06/25 12:36:42;;;;;;;8.52;5.18;;;30.60;82.50;;;;;;5077751;28;20209;-85
2023/06/25 12:39:09;;;;;;;6.97;4.65;;;30.90;79.60;;;;;;5095996;28;20193;-85
2023/06/25 12:41:36;;;;;;;7.03;5.20;;;31.00;80.30;;;;;;5077805;28;20300;-84
2023/06/25 12:44:03;;;;;;;8.40;5.38;;;30.20;79.30;;;;;;5078159;28;20217;-81